createdAt,value
2023-02-16T00:00:48.081Z,8.57
2023-02-16T00:03:20.954Z,9.43
2023-02-16T00:05:48.881Z,11.23
2023-02-16T00:08:15.596Z,9.90
2023-02-16T00:11:02.748Z,10.33
2023-02-16T00:13:47.471Z,10.70
2023-02-16T00:16:16.725Z,13.00
2023-02-16T00:18:44.200Z,11.63
2023-02-16T00:21:11.176Z,13.13
2023-02-16T00:23:38.558Z,14.23
2023-02-16T00:26:06.078Z,13.80
2023-02-16T00:28:33.063Z,16.37
2023-02-16T00:30:59.955Z,16.53
2023-02-16T00:33:26.798Z,15.80
2023-02-16T00:35:53.599Z,15.37
2023-02-16T00:38:20.399Z,15.73
2023-02-16T00:40:47.206Z,15.53
2023-02-16T00:43:28.506Z,15.67
2023-02-16T00:45:56.348Z,15.50
2023-02-16T00:48:24.263Z,16.10
2023-02-16T00:50:53.335Z,16.97
2023-02-16T00:53:20.057Z,17.27
2023-02-16T00:55:47.063Z,17.13
2023-02-16T00:58:26.619Z,16.57
2023-02-16T01:01:03.486Z,14.57
2023-02-16T01:03:30.398Z,14.93
2023-02-16T01:06:15.853Z,14.70
2023-02-16T01:09:01.523Z,13.83
2023-02-16T01:11:28.828Z,12.97
2023-02-16T01:13:56.822Z,12.50
2023-02-16T01:16:42.334Z,13.20
2023-02-16T01:19:12.145Z,12.73
2023-02-16T01:21:39.457Z,11.90
2023-02-16T01:24:06.456Z,12.30
2023-02-16T01:26:39.498Z,11.73
2023-02-16T01:29:09.937Z,11.50
2023-02-16T01:31:36.701Z,11.60
2023-02-16T01:34:03.505Z,10.93
2023-02-16T01:36:34.606Z,12.30
2023-02-16T01:39:01.792Z,12.83
2023-02-16T01:41:44.263Z,12.33
2023-02-16T01:44:23.763Z,12.40
2023-02-16T01:47:11.832Z,11.47
2023-02-16T01:49:38.613Z,13.30
2023-02-16T01:52:10.922Z,12.77
2023-02-16T01:54:55.908Z,14.00
2023-02-16T01:57:40.173Z,12.87
2023-02-16T02:00:12.380Z,11.77
2023-02-16T02:02:52.565Z,12.40
2023-02-16T02:05:35.472Z,13.20
2023-02-16T02:08:25.319Z,11.43
2023-02-16T02:11:01.238Z,12.67
2023-02-16T02:13:43.392Z,12.27
2023-02-16T02:16:11.607Z,12.53
2023-02-16T02:18:38.814Z,13.37
2023-02-16T02:22:01.939Z,13.67
2023-02-16T02:24:52.644Z,13.90
2023-02-16T02:27:25.598Z,14.67
2023-02-16T02:30:06.317Z,17.50
2023-02-16T02:32:49.777Z,22.97
2023-02-16T02:35:34.919Z,20.10
2023-02-16T02:38:07.705Z,17.83
2023-02-16T02:40:55.549Z,16.47
2023-02-16T02:43:50.604Z,15.17
2023-02-16T02:46:38.442Z,14.30
2023-02-16T02:49:05.270Z,14.80
2023-02-16T02:51:33.849Z,14.50
2023-02-16T02:54:37.002Z,14.03
2023-02-16T02:57:32.776Z,13.17
2023-02-16T03:00:35.155Z,13.10
2023-02-16T03:03:27.654Z,13.50
2023-02-16T03:06:03.043Z,14.40
2023-02-16T03:08:33.031Z,13.93
2023-02-16T03:11:28.490Z,13.57
2023-02-16T03:14:00.052Z,12.30
2023-02-16T03:16:42.407Z,12.27
2023-02-16T03:19:30.674Z,12.33
2023-02-16T03:22:17.088Z,12.63
2023-02-16T03:25:03.641Z,12.83
2023-02-16T03:27:57.956Z,12.77
2023-02-16T03:30:26.593Z,11.90
2023-02-16T03:32:54.376Z,12.43
2023-02-16T03:35:21.474Z,12.90
2023-02-16T03:37:48.505Z,12.40
2023-02-16T03:40:29.063Z,11.87
2023-02-16T03:43:05.167Z,11.73
2023-02-16T03:45:35.159Z,11.60
2023-02-16T03:48:02.677Z,12.73
2023-02-16T03:50:29.884Z,10.97
2023-02-16T03:53:09.678Z,11.53
2023-02-16T03:55:37.369Z,10.33
2023-02-16T03:58:06.292Z,10.40
2023-02-16T04:00:33.549Z,9.93
2023-02-16T04:03:00.327Z,11.67
2023-02-16T04:05:27.154Z,11.03
2023-02-16T04:07:53.978Z,11.23
2023-02-16T04:10:20.971Z,11.13
2023-02-16T04:12:48.013Z,10.43
2023-02-16T04:15:18.168Z,12.03
2023-02-16T04:17:45.317Z,11.20
2023-02-16T04:20:17.374Z,10.73
2023-02-16T04:22:44.892Z,10.93
2023-02-16T04:25:12.303Z,10.90
2023-02-16T04:27:39.596Z,11.33
2023-02-16T04:30:09.410Z,10.93
2023-02-16T04:32:36.270Z,11.03
2023-02-16T04:35:03.640Z,10.93
2023-02-16T04:37:30.866Z,12.13
2023-02-16T04:39:57.577Z,10.47
2023-02-16T04:42:25.521Z,11.07
2023-02-16T04:44:52.436Z,11.03
2023-02-16T04:47:19.611Z,12.03
2023-02-16T04:49:48.073Z,11.97
2023-02-16T04:52:16.646Z,11.97
2023-02-16T04:54:49.512Z,11.80
2023-02-16T04:57:17.244Z,11.07
2023-02-16T04:59:44.047Z,10.63
2023-02-16T05:02:11.112Z,11.53
2023-02-16T05:04:38.028Z,10.77
2023-02-16T05:07:04.821Z,11.80
2023-02-16T05:09:31.546Z,11.43
2023-02-16T05:12:16.774Z,11.00
2023-02-16T05:14:44.892Z,12.10
2023-02-16T05:17:13.664Z,10.90
2023-02-16T05:19:41.229Z,12.80
2023-02-16T05:22:09.163Z,12.00
2023-02-16T05:24:36.826Z,11.77
2023-02-16T05:27:05.857Z,11.40
2023-02-16T05:29:32.951Z,12.93
2023-02-16T05:32:02.010Z,11.67
2023-02-16T05:34:30.843Z,11.93
2023-02-16T05:36:57.570Z,18.77
2023-02-16T05:39:24.346Z,23.73
2023-02-16T05:41:51.395Z,20.10
2023-02-16T05:44:18.388Z,17.67
2023-02-16T05:46:46.552Z,15.00
2023-02-16T05:49:14.867Z,15.00
2023-02-16T05:51:41.682Z,13.70
2023-02-16T05:54:17.368Z,12.63
2023-02-16T05:56:50.043Z,14.97
2023-02-16T05:59:17.685Z,13.27
2023-02-16T06:01:47.937Z,13.50
2023-02-16T06:04:17.564Z,13.63
2023-02-16T06:06:44.474Z,12.97
2023-02-16T06:09:11.288Z,12.27
2023-02-16T06:11:38.166Z,11.83
2023-02-16T06:14:11.106Z,11.90
2023-02-16T06:16:39.927Z,12.23
2023-02-16T06:19:07.014Z,13.50
2023-02-16T06:21:34.480Z,12.17
2023-02-16T06:24:01.316Z,11.37
2023-02-16T06:26:28.761Z,11.97
2023-02-16T06:28:55.696Z,10.70
2023-02-16T06:31:23.642Z,11.30
2023-02-16T06:33:50.782Z,11.30
2023-02-16T06:36:18.129Z,11.33
2023-02-16T06:38:45.566Z,11.40
2023-02-16T06:41:13.014Z,11.83
2023-02-16T06:43:39.743Z,11.10
2023-02-16T06:46:06.742Z,47.13
2023-02-16T06:48:33.700Z,23.47
2023-02-16T06:51:00.509Z,17.17
2023-02-16T06:53:27.375Z,15.07
2023-02-16T06:55:54.123Z,22.47
2023-02-16T06:58:20.862Z,28.33
2023-02-16T07:00:48.148Z,20.40
2023-02-16T07:03:15.095Z,18.13
2023-02-16T07:05:43.984Z,17.63
2023-02-16T07:08:10.755Z,16.43
2023-02-16T07:10:49.531Z,15.27
2023-02-16T07:13:16.667Z,17.10
2023-02-16T07:15:43.378Z,13.23
2023-02-16T07:18:10.154Z,13.50
2023-02-16T07:20:37.830Z,11.77
2023-02-16T07:23:04.908Z,10.73
2023-02-16T07:25:31.599Z,10.70
2023-02-16T07:27:58.517Z,10.77
2023-02-16T07:30:25.406Z,9.87
2023-02-16T07:32:52.227Z,10.00
2023-02-16T07:35:19.030Z,9.50
2023-02-16T07:37:45.756Z,10.77
2023-02-16T07:40:13.373Z,12.50
2023-02-16T07:42:40.116Z,12.00
2023-02-16T07:45:07.176Z,11.03
2023-02-16T07:47:33.925Z,10.47
2023-02-16T07:50:00.658Z,14.33
2023-02-16T07:52:30.982Z,18.07
2023-02-16T07:54:59.037Z,15.40
2023-02-16T07:57:27.384Z,16.60
2023-02-16T07:59:54.796Z,16.43
2023-02-16T08:02:22.844Z,18.30
2023-02-16T08:04:52.618Z,28.90
2023-02-16T08:07:20.162Z,22.83
2023-02-16T08:09:47.115Z,19.47
2023-02-16T08:12:15.366Z,15.20
2023-02-16T08:14:42.749Z,14.50
2023-02-16T08:17:10.438Z,13.97
2023-02-16T08:19:37.450Z,15.37
2023-02-16T08:22:05.509Z,15.70
2023-02-16T08:24:34.085Z,13.00
2023-02-16T08:27:03.810Z,12.50
2023-02-16T08:29:32.078Z,12.50
2023-02-16T08:31:59.595Z,12.60
2023-02-16T08:34:26.606Z,11.70
2023-02-16T08:36:56.820Z,10.30
2023-02-16T08:39:30.729Z,11.03
2023-02-16T08:41:58.333Z,10.60
2023-02-16T08:44:26.306Z,11.10
2023-02-16T08:46:55.760Z,10.10
2023-02-16T08:49:24.150Z,9.70
2023-02-16T08:51:56.522Z,10.70
2023-02-16T08:54:30.618Z,10.17
2023-02-16T08:56:59.680Z,10.17
2023-02-16T08:59:28.744Z,9.90
2023-02-16T09:01:59.972Z,9.73
2023-02-16T09:04:28.979Z,11.60
2023-02-16T09:06:58.318Z,9.67
2023-02-16T09:09:26.421Z,9.87
2023-02-16T09:11:53.392Z,10.23
2023-02-16T09:14:21.480Z,10.03
2023-02-16T09:16:48.604Z,10.53
2023-02-16T09:19:18.995Z,10.60
2023-02-16T09:21:47.236Z,9.93
2023-02-16T09:24:14.362Z,10.97
2023-02-16T09:26:42.907Z,10.83
2023-02-16T09:29:12.424Z,10.47
2023-02-16T09:31:39.981Z,11.67
2023-02-16T09:34:21.748Z,11.37
2023-02-16T09:36:49.855Z,11.97
2023-02-16T09:39:17.064Z,12.70
2023-02-16T09:42:11.958Z,11.40
2023-02-16T09:45:15.420Z,11.47
2023-02-16T09:47:45.799Z,13.30
2023-02-16T09:53:32.555Z,12.93
2023-02-16T09:56:06.251Z,12.97
2023-02-16T09:58:47.985Z,12.40
2023-02-16T10:01:36.130Z,12.50
2023-02-16T10:04:35.377Z,12.07
2023-02-16T10:07:39.207Z,12.93
2023-02-16T10:10:07.810Z,12.63
2023-02-16T10:12:41.710Z,13.30
2023-02-16T10:15:22.343Z,12.73
2023-02-16T10:17:58.243Z,12.27
2023-02-16T10:20:28.249Z,12.20
2023-02-16T10:23:23.114Z,11.73
2023-02-16T10:26:13.570Z,11.13
2023-02-16T10:28:46.350Z,11.50
2023-02-16T10:31:36.111Z,11.87
2023-02-16T10:34:28.210Z,12.63
2023-02-16T10:37:16.472Z,11.23
2023-02-16T10:39:47.924Z,11.47
2023-02-16T10:42:34.377Z,10.77
2023-02-16T10:45:20.128Z,10.43
2023-02-16T10:47:47.340Z,10.50
2023-02-16T10:50:33.128Z,9.87
2023-02-16T10:53:06.614Z,10.90
2023-02-16T10:55:33.389Z,10.30
2023-02-16T10:58:01.763Z,9.97
2023-02-16T11:00:46.886Z,9.33
2023-02-16T11:03:15.507Z,9.60
2023-02-16T11:05:42.523Z,8.50
2023-02-16T11:08:12.722Z,9.30
2023-02-16T11:10:51.960Z,9.60
2023-02-16T11:13:34.311Z,8.70
2023-02-16T11:16:06.867Z,9.30
2023-02-16T11:18:55.361Z,8.60
2023-02-16T11:21:55.156Z,9.20
2023-02-16T11:24:37.288Z,8.70
2023-02-16T11:27:26.312Z,9.07
2023-02-16T11:30:24.063Z,9.03
2023-02-16T11:32:51.875Z,8.50
2023-02-16T11:35:19.027Z,9.30
2023-02-16T11:37:46.448Z,8.13
2023-02-16T11:40:24.201Z,7.73
2023-02-16T11:42:54.162Z,7.87
2023-02-16T11:45:35.583Z,8.07
2023-02-16T11:48:08.698Z,7.40
2023-02-16T11:50:38.649Z,7.60
2023-02-16T11:53:11.580Z,7.33
2023-02-16T11:55:45.166Z,8.10
2023-02-16T11:58:25.448Z,7.20
2023-02-16T12:01:34.705Z,7.67
2023-02-16T12:04:20.214Z,7.20
2023-02-16T12:07:08.822Z,7.90
2023-02-16T12:09:56.447Z,7.33
2023-02-16T12:12:32.088Z,7.80
2023-02-16T12:15:24.955Z,7.23
2023-02-16T12:18:20.604Z,6.93
2023-02-16T12:21:05.001Z,6.80
2023-02-16T12:23:38.859Z,6.60
2023-02-16T12:26:28.995Z,6.67
2023-02-16T12:29:20.608Z,6.50
2023-02-16T12:32:01.985Z,6.37
2023-02-16T12:34:48.682Z,6.00
2023-02-16T12:37:31.672Z,5.67
2023-02-16T12:40:30.945Z,6.13
2023-02-16T12:43:28.572Z,6.03
2023-02-16T12:45:57.879Z,6.00
2023-02-16T12:48:46.938Z,5.83
2023-02-16T12:51:25.383Z,5.67
2023-02-16T12:54:27.350Z,5.93
2023-02-16T12:57:06.527Z,5.37
2023-02-16T12:59:39.161Z,5.40
2023-02-16T13:02:34.543Z,5.40
2023-02-16T13:05:08.646Z,5.53
2023-02-16T13:07:50.159Z,6.40
2023-02-16T13:10:54.457Z,5.63
2023-02-16T13:13:26.438Z,6.50
2023-02-16T13:16:17.475Z,6.23
2023-02-16T13:18:50.421Z,6.37
2023-02-16T13:21:49.082Z,5.73
2023-02-16T13:24:45.779Z,5.90
2023-02-16T13:27:21.792Z,5.90
2023-02-16T13:30:10.443Z,6.03
2023-02-16T13:33:14.198Z,6.13
2023-02-16T13:36:22.906Z,6.00
2023-02-16T13:39:26.911Z,6.33
2023-02-16T13:42:00.322Z,7.10
2023-02-16T13:44:43.971Z,6.27
2023-02-16T13:47:16.257Z,6.13
2023-02-16T13:49:43.567Z,6.83
2023-02-16T13:52:31.618Z,5.90
2023-02-16T13:55:01.410Z,6.60
2023-02-16T13:57:50.436Z,7.00
2023-02-16T14:00:42.243Z,6.50
2023-02-16T14:03:18.797Z,6.70
2023-02-16T14:05:48.043Z,6.40
2023-02-16T14:08:16.960Z,6.97
2023-02-16T14:10:55.949Z,7.20
2023-02-16T14:13:31.340Z,6.13
2023-02-16T14:16:17.196Z,6.83
2023-02-16T14:18:46.940Z,7.00
2023-02-16T14:21:24.691Z,5.97
2023-02-16T14:23:57.238Z,6.63
2023-02-16T14:26:24.708Z,6.70
2023-02-16T14:29:18.945Z,6.63
2023-02-16T14:32:24.528Z,5.70
2023-02-16T14:35:04.712Z,5.87
2023-02-16T14:37:37.332Z,6.03
2023-02-16T14:40:40.011Z,7.00
2023-02-16T14:43:17.895Z,6.20
2023-02-16T14:46:19.311Z,6.03
2023-02-16T14:49:13.227Z,6.10
2023-02-16T14:51:58.802Z,6.63
2023-02-16T14:54:54.474Z,6.60
2023-02-16T14:57:31.262Z,7.40
2023-02-16T15:00:19.762Z,6.87
2023-02-16T15:02:59.792Z,6.70
2023-02-16T15:05:32.916Z,6.90
2023-02-16T15:08:17.749Z,6.47
2023-02-16T15:10:48.809Z,6.33
2023-02-16T15:13:21.255Z,6.60
2023-02-16T15:15:51.664Z,6.50
2023-02-16T15:18:21.422Z,6.67
2023-02-16T15:20:51.383Z,6.67
2023-02-16T15:23:27.706Z,7.20
2023-02-16T15:26:02.011Z,7.43
2023-02-16T15:28:31.602Z,6.37
2023-02-16T15:31:01.245Z,6.90
2023-02-16T15:33:36.316Z,7.33
2023-02-16T15:36:11.884Z,7.47
2023-02-16T15:38:41.750Z,7.63
2023-02-16T15:41:14.700Z,8.20
2023-02-16T15:43:47.492Z,6.97
2023-02-16T15:46:28.760Z,7.10
2023-02-16T15:48:56.210Z,17.80
2023-02-16T15:51:31.933Z,9.83
2023-02-16T15:54:05.503Z,9.27
2023-02-16T15:56:50.391Z,9.20
2023-02-16T15:59:23.197Z,8.67
2023-02-16T16:02:00.334Z,9.07
2023-02-16T16:04:27.813Z,7.50
2023-02-16T16:06:55.230Z,8.47
2023-02-16T16:09:25.786Z,8.13
2023-02-16T16:11:56.614Z,8.83
2023-02-16T16:14:24.299Z,8.40
2023-02-16T16:16:51.616Z,8.10
2023-02-16T16:19:21.576Z,7.83
2023-02-16T16:21:56.724Z,7.77
2023-02-16T16:24:42.605Z,6.90
2023-02-16T16:27:12.601Z,6.80
2023-02-16T16:29:45.831Z,6.80
2023-02-16T16:32:31.046Z,7.93
2023-02-16T16:34:57.866Z,6.43
2023-02-16T16:37:29.872Z,6.93
2023-02-16T16:40:07.256Z,6.83
2023-02-16T16:42:39.002Z,6.57
2023-02-16T16:45:20.860Z,6.50
2023-02-16T16:47:51.877Z,6.80
2023-02-16T16:50:21.268Z,7.00
2023-02-16T16:52:49.810Z,7.73
2023-02-16T16:55:19.685Z,7.17
2023-02-16T16:57:47.676Z,6.83
2023-02-16T17:00:15.733Z,7.50
2023-02-16T17:02:42.640Z,7.43
2023-02-16T17:05:09.581Z,6.70
2023-02-16T17:07:36.446Z,6.90
2023-02-16T17:10:03.555Z,6.53
2023-02-16T17:12:30.334Z,6.97
2023-02-16T17:14:57.084Z,6.27
2023-02-16T17:17:23.915Z,6.67
2023-02-16T17:19:50.670Z,8.00
2023-02-16T17:22:20.146Z,7.10
2023-02-16T17:24:47.744Z,8.37
2023-02-16T17:27:14.679Z,9.67
2023-02-16T17:29:43.038Z,12.07
2023-02-16T17:32:09.948Z,10.53
2023-02-16T17:34:36.813Z,7.63
2023-02-16T17:37:07.450Z,6.57
2023-02-16T17:39:35.114Z,7.00
2023-02-16T17:42:02.405Z,7.07
2023-02-16T17:44:29.236Z,6.83
2023-02-16T17:46:56.232Z,6.57
2023-02-16T17:49:23.029Z,6.27
2023-02-16T17:51:49.796Z,10.17
2023-02-16T17:54:16.527Z,10.40
2023-02-16T17:56:45.307Z,8.30
2023-02-16T17:59:15.261Z,7.60
2023-02-16T18:01:43.714Z,8.33
2023-02-16T18:04:10.518Z,7.37
2023-02-16T18:06:37.529Z,7.07
2023-02-16T18:09:04.670Z,7.00
2023-02-16T18:11:31.510Z,7.47
2023-02-16T18:13:58.230Z,7.00
2023-02-16T18:16:27.449Z,7.37
2023-02-16T18:18:54.826Z,7.67
2023-02-16T18:21:21.577Z,7.87
2023-02-16T18:23:48.320Z,9.00
2023-02-16T18:26:16.477Z,9.27
2023-02-16T18:28:43.973Z,8.53
2023-02-16T18:31:11.098Z,8.30
2023-02-16T18:33:37.907Z,9.00
2023-02-16T18:36:05.325Z,9.80
2023-02-16T18:38:32.467Z,9.10
2023-02-16T18:40:59.321Z,10.40
2023-02-16T18:43:26.128Z,9.23
2023-02-16T18:45:52.854Z,9.00
2023-02-16T18:48:19.651Z,9.57
2023-02-16T18:50:46.476Z,8.50
2023-02-16T18:53:13.226Z,8.93
2023-02-16T18:55:39.992Z,9.67
2023-02-16T18:58:08.540Z,9.43
2023-02-16T19:00:36.990Z,9.40
2023-02-16T19:03:04.155Z,8.87
2023-02-16T19:05:31.122Z,8.50
2023-02-16T19:07:57.893Z,9.53
2023-02-16T19:10:25.147Z,8.80
2023-02-16T19:12:51.936Z,8.83
2023-02-16T19:15:18.709Z,8.60
2023-02-16T19:17:45.448Z,8.47
2023-02-16T19:20:16.773Z,8.47
2023-02-16T19:22:47.331Z,8.63
2023-02-16T19:25:15.414Z,8.63
2023-02-16T19:27:42.548Z,7.97
2023-02-16T19:30:09.928Z,10.30
2023-02-16T19:32:37.056Z,8.00
2023-02-16T19:35:04.094Z,8.33
2023-02-16T19:37:30.905Z,8.17
2023-02-16T19:39:57.765Z,7.80
2023-02-16T19:42:24.542Z,7.70
2023-02-16T19:44:51.408Z,7.53
2023-02-16T19:47:18.203Z,7.13
2023-02-16T19:49:45.557Z,7.20
2023-02-16T19:52:12.537Z,6.60
2023-02-16T19:54:39.564Z,6.87
2023-02-16T19:57:06.353Z,6.60
2023-02-16T19:59:33.094Z,6.87
2023-02-16T20:02:00.053Z,7.17
2023-02-16T20:04:27.421Z,7.00
2023-02-16T20:06:54.636Z,6.30
2023-02-16T20:09:22.213Z,6.60
2023-02-16T20:11:49.447Z,6.60
2023-02-16T20:14:16.443Z,6.43
2023-02-16T20:16:43.514Z,7.03
2023-02-16T20:19:10.561Z,6.70
2023-02-16T20:21:37.709Z,6.83
2023-02-16T20:24:05.803Z,7.13
2023-02-16T20:26:35.951Z,6.93
2023-02-16T20:29:05.218Z,7.70
2023-02-16T20:31:36.174Z,8.03
2023-02-16T20:34:04.647Z,7.70
2023-02-16T20:36:32.326Z,7.67
2023-02-16T20:38:59.109Z,7.33
2023-02-16T20:41:25.956Z,7.37
2023-02-16T20:43:52.763Z,7.40
2023-02-16T20:46:20.575Z,7.03
2023-02-16T20:48:49.943Z,7.83
2023-02-16T20:51:17.473Z,7.27
2023-02-16T20:53:44.208Z,7.30
2023-02-16T20:56:21.369Z,8.10
2023-02-16T20:58:49.497Z,7.60
2023-02-16T21:01:39.014Z,6.70
2023-02-16T21:04:07.632Z,7.00
2023-02-16T21:06:34.835Z,6.47
2023-02-16T21:09:01.864Z,6.47
2023-02-16T21:11:28.682Z,6.40
2023-02-16T21:13:55.488Z,6.57
2023-02-16T21:16:22.861Z,6.33
2023-02-16T21:18:49.684Z,6.33
2023-02-16T21:21:17.099Z,6.27
2023-02-16T21:23:46.740Z,6.20
2023-02-16T21:26:14.074Z,5.97
2023-02-16T21:28:41.132Z,5.70
2023-02-16T21:31:13.787Z,5.80
2023-02-16T21:33:40.819Z,5.57
2023-02-16T21:36:10.452Z,5.60
2023-02-16T21:38:38.013Z,5.63
2023-02-16T21:41:25.650Z,5.57
2023-02-16T21:43:59.179Z,6.13
2023-02-16T21:46:26.984Z,6.23
2023-02-16T21:48:55.074Z,6.50
2023-02-16T21:51:27.947Z,6.80
2023-02-16T21:53:55.078Z,6.57
2023-02-16T21:56:31.111Z,7.13
2023-02-16T21:58:58.197Z,7.77
2023-02-16T22:01:33.981Z,9.07
2023-02-16T22:04:01.519Z,9.70
2023-02-16T22:06:34.583Z,11.73
2023-02-16T22:09:04.977Z,12.27
2023-02-16T22:11:31.762Z,13.63
2023-02-16T22:14:00.248Z,11.20
2023-02-16T22:16:29.770Z,11.30
2023-02-16T22:19:14.133Z,16.80
2023-02-16T22:21:42.794Z,14.03
2023-02-16T22:24:12.648Z,15.73
2023-02-16T22:26:39.483Z,15.60
2023-02-16T22:29:07.900Z,15.53
2023-02-16T22:31:35.391Z,14.57
2023-02-16T22:34:07.598Z,16.77
2023-02-16T22:36:35.945Z,17.17
2023-02-16T22:39:02.685Z,14.30
2023-02-16T22:41:29.573Z,11.90
2023-02-16T22:43:59.170Z,12.07
2023-02-16T22:46:26.749Z,9.93
2023-02-16T22:48:53.747Z,10.87
2023-02-16T22:51:21.470Z,9.83
2023-02-16T22:53:48.393Z,8.77
2023-02-16T22:56:17.592Z,9.27
2023-02-16T22:58:45.209Z,8.70
2023-02-16T23:01:14.127Z,9.13
2023-02-16T23:03:41.859Z,7.60
2023-02-16T23:06:22.732Z,8.23
2023-02-16T23:09:07.519Z,8.53
2023-02-16T23:11:35.766Z,7.27
2023-02-16T23:14:02.857Z,7.20
2023-02-16T23:16:30.014Z,6.17
2023-02-16T23:18:58.794Z,6.27
2023-02-16T23:21:31.833Z,5.87
2023-02-16T23:23:59.611Z,5.50
2023-02-16T23:26:29.675Z,5.07
2023-02-16T23:29:01.034Z,5.43
2023-02-16T23:31:32.488Z,5.50
2023-02-16T23:34:02.045Z,5.00
2023-02-16T23:36:29.362Z,5.27
2023-02-16T23:38:59.665Z,5.63
2023-02-16T23:41:26.457Z,7.03
2023-02-16T23:43:53.371Z,6.80
2023-02-16T23:46:20.146Z,7.53
2023-02-16T23:48:46.915Z,7.77
2023-02-16T23:51:13.732Z,8.17
2023-02-16T23:53:40.932Z,8.07
2023-02-16T23:56:11.892Z,8.07
2023-02-16T23:58:46.862Z,7.40
